Time;durP1;ratioP1;P1;durP2;ratioP2;P2;SDS_P1;SDS_P2;PMS_P1;PMS_P2;Temp;Humidity;BMP_temperature;BMP_pressure;BME280_temperature;BME280_humidity;BME280_pressure;Samples;Min_cycle;Max_cycle;Signal;HPM_P1;HPM_P2
2022/07/02 00:01:03;;;;;;;7.80;3.75;;;;;;;23.51;61.78;100011.44;4462001;32;33195;-81
2022/07/02 00:03:33;;;;;;;6.78;3.95;;;;;;;22.64;65.15;100015.12;4468871;32;34572;-80
2022/07/02 00:06:02;;;;;;;7.90;3.97;;;;;;;22.89;64.69;100027.44;4457373;32;34447;-81
2022/07/02 00:08:30;;;;;;;6.93;4.35;;;;;;;22.86;64.59;100027.44;4448181;32;32353;-78
2022/07/02 00:10:59;;;;;;;6.75;3.60;;;;;;;22.64;65.64;100023.97;4461089;32;33570;-78
2022/07/02 00:13:27;;;;;;;8.75;3.90;;;;;;;23.05;63.83;100019.53;4444893;32;34612;-80
2022/07/02 00:15:55;;;;;;;9.10;3.08;;;;;;;22.91;64.26;100015.12;4457336;32;33913;-81
2022/07/02 00:18:23;;;;;;;5.85;3.65;;;;;;;23.25;63.17;100032.66;4452318;32;33281;-81
2022/07/02 00:20:50;;;;;;;5.85;3.47;;;;;;;22.69;64.79;100019.53;4458856;32;33278;-82
2022/07/02 00:23:18;;;;;;;10.82;3.97;;;;;;;22.96;64.26;100007.16;4464479;32;34814;-80
2022/07/02 00:25:56;;;;;;;6.85;4.25;;;;;;;23.61;61.33;99997.25;4459342;32;33952;-79
2022/07/02 00:28:26;;;;;;;5.80;3.37;;;;;;;23.76;60.53;100004.25;4458655;32;35553;-79
2022/07/02 00:30:53;;;;;;;7.87;3.92;;;;;;;23.65;60.66;100003.41;4455447;32;33911;-80
2022/07/02 00:33:23;;;;;;;7.12;3.60;;;;;;;23.74;60.21;100006.87;4451964;32;32390;-81
2022/07/02 00:35:51;;;;;;;8.82;3.90;;;;;;;23.55;60.78;100015.81;4458985;32;33935;-78
2022/07/02 00:38:19;;;;;;;6.37;3.40;;;;;;;23.54;60.48;100032.53;4454271;32;32527;-79
2022/07/02 00:40:47;;;;;;;7.95;3.72;;;;;;;23.93;59.35;100041.19;4455191;32;33174;-81
2022/07/02 00:43:15;;;;;;;5.45;3.55;;;;;;;23.48;60.51;100022.88;4452416;32;34470;-80
2022/07/02 00:45:43;;;;;;;6.32;3.17;;;;;;;23.08;62.12;100025.69;4457625;32;32432;-79
2022/07/02 00:48:13;;;;;;;6.95;3.42;;;;;;;23.26;61.55;100019.44;4464093;32;34289;-79
2022/07/02 00:50:40;;;;;;;10.93;3.75;;;;;;;22.95;62.29;100026.56;4462621;32;33038;-80
2022/07/02 00:53:08;;;;;;;7.15;3.30;;;;;;;22.84;62.61;100038.91;4465187;32;35539;-78
2022/07/02 00:55:35;;;;;;;5.75;3.33;;;;;;;22.81;62.72;100034.47;4461686;32;33997;-78
2022/07/02 00:58:03;;;;;;;5.05;3.25;;;;;;;22.62;63.27;100020.44;4457747;32;33596;-78
2022/07/02 01:00:31;;;;;;;6.78;3.10;;;;;;;22.94;61.97;99999.25;4447732;32;33332;-79
2022/07/02 01:02:59;;;;;;;6.15;3.40;;;;;;;22.79;62.38;100009.84;4459121;32;33884;-80
2022/07/02 01:05:26;;;;;;;5.28;3.33;;;;;;;22.92;61.93;100014.22;4463019;32;33878;-79
2022/07/02 01:10:44;;;;;;;7.70;3.22;;;;;;;22.76;62.37;100038.91;4457274;32;33898;-81
2022/07/02 01:13:12;;;;;;;6.50;2.92;;;;;;;22.54;63.69;100046.84;4444906;32;32613;-80
2022/07/02 01:15:40;;;;;;;6.62;2.80;;;;;;;22.61;63.18;100041.56;4460709;32;34618;-80
2022/07/02 01:18:08;;;;;;;6.20;2.80;;;;;;;22.40;63.41;100032.75;4457710;32;34683;-79
2022/07/02 01:20:35;;;;;;;5.90;2.87;;;;;;;22.47;62.99;100029.25;4463254;32;33387;-80
2022/07/02 01:23:03;;;;;;;5.45;3.03;;;;;;;22.30;63.54;100031.88;4467619;32;33806;-80
2022/07/02 01:25:31;;;;;;;5.07;2.25;;;;;;;21.70;65.90;100029.09;4467850;32;33975;-79
2022/07/02 01:27:58;;;;;;;4.07;2.20;;;;;;;21.46;66.62;100034.25;4453214;32;34646;-81
2022/07/02 01:30:26;;;;;;;3.60;1.90;;;;;;;22.05;64.67;100062.59;4461977;32;34136;-79
2022/07/02 01:32:54;;;;;;;4.70;1.80;;;;;;;21.83;65.18;100071.31;4448377;32;34451;-77
2022/07/02 01:35:22;;;;;;;4.00;1.42;;;;;;;21.94;64.22;100073.12;4467906;32;33627;-78
2022/07/02 01:37:49;;;;;;;5.78;1.30;;;;;;;21.37;65.40;100077.25;4466086;32;33603;-79
2022/07/02 01:40:17;;;;;;;6.43;1.27;;;;;;;20.61;67.37;100096.94;4460249;32;32131;-80
2022/07/02 01:42:45;;;;;;;5.82;1.37;;;;;;;20.39;68.69;100103.69;4459734;32;33694;-78
2022/07/02 01:45:12;;;;;;;2.50;1.10;;;;;;;20.24;69.07;100099.16;4463670;32;34827;-79
2022/07/02 01:47:39;;;;;;;4.00;1.20;;;;;;;19.98;70.37;100097.13;4458238;32;33806;-79
2022/07/02 01:50:07;;;;;;;3.47;1.20;;;;;;;20.30;68.59;100090.44;4461231;32;33212;-77
2022/07/02 01:52:35;;;;;;;8.30;1.40;;;;;;;20.48;67.23;100077.47;4467332;32;33917;-79
2022/07/02 01:55:03;;;;;;;4.05;1.17;;;;;;;19.62;69.77;100081.75;4458508;32;32426;-79
2022/07/02 01:57:35;;;;;;;5.00;1.10;;;;;;;20.07;68.43;100075.31;4455351;32;33861;-80
2022/07/02 02:00:09;;;;;;;4.60;1.12;;;;;;;20.12;67.97;100055.19;4457203;32;32956;-79
2022/07/02 02:02:36;;;;;;;3.40;1.40;;;;;;;19.93;68.82;100055.88;4460756;32;34377;-80
2022/07/02 02:05:05;;;;;;;4.62;1.50;;;;;;;19.78;68.96;100025.94;4462680;32;33892;-79
2022/07/02 02:07:32;;;;;;;3.90;1.25;;;;;;;19.67;69.23;100006.50;4457125;32;33941;-80
2022/07/02 02:09:59;;;;;;;4.55;1.48;;;;;;;19.54;70.02;99978.31;4461626;32;34069;-79
2022/07/02 02:12:27;;;;;;;3.33;1.40;;;;;;;19.53;70.53;99960.78;4452302;32;33926;-81
2022/07/02 02:14:55;;;;;;;3.45;1.48;;;;;;;19.47;70.85;99942.34;4458023;32;33945;-78
2022/07/02 02:17:23;;;;;;;4.05;1.30;;;;;;;19.75;69.88;99947.03;4462184;32;34617;-81
2022/07/02 02:19:50;;;;;;;2.75;1.48;;;;;;;19.89;69.47;99952.44;4462306;32;34021;-79
2022/07/02 02:22:18;;;;;;;2.83;1.30;;;;;;;19.81;70.06;99968.13;4466936;32;33768;-79
2022/07/02 02:24:45;;;;;;;4.53;1.52;;;;;;;19.58;70.94;99969.59;4459734;32;34000;-79
2022/07/02 02:27:13;;;;;;;1.62;1.00;;;;;;;19.51;71.73;99962.50;4461167;32;33955;-77
2022/07/02 02:29:40;;;;;;;2.03;1.20;;;;;;;19.57;70.96;99942.47;4462005;32;33875;-79
2022/07/02 02:32:08;;;;;;;4.30;1.48;;;;;;;19.64;70.71;99932.87;4459165;32;34326;-79
2022/07/02 02:34:36;;;;;;;3.42;1.40;;;;;;;19.69;70.53;99925.94;4466132;32;34740;-79
2022/07/02 02:37:04;;;;;;;4.30;1.40;;;;;;;19.51;71.28;99941.50;4460402;32;34581;-79
2022/07/02 02:39:31;;;;;;;3.62;1.73;;;;;;;19.56;71.08;99971.34;4464918;32;34043;-79
2022/07/02 02:41:59;;;;;;;2.05;1.10;;;;;;;19.58;70.94;99985.37;4465315;32;34678;-79
2022/07/02 02:44:27;;;;;;;3.65;1.23;;;;;;;19.54;71.10;99983.56;4456784;32;34099;-80
2022/07/02 02:46:54;;;;;;;2.37;1.12;;;;;;;19.24;72.19;100003.37;4461784;32;33901;-80
2022/07/02 02:49:22;;;;;;;2.60;1.27;;;;;;;19.05;72.66;100011.00;4463056;32;33465;-79
2022/07/02 02:51:49;;;;;;;2.67;1.02;;;;;;;19.21;72.50;100021.72;4457525;32;33896;-78
2022/07/02 02:54:17;;;;;;;2.42;1.35;;;;;;;19.10;72.41;100023.28;4445812;32;32430;-80
2022/07/02 02:56:44;;;;;;;2.17;1.30;;;;;;;18.88;73.44;100019.50;4468447;32;34454;-79
2022/07/02 02:59:12;;;;;;;4.12;1.25;;;;;;;19.14;72.37;100025.09;4460246;32;33475;-80
2022/07/02 03:01:39;;;;;;;2.83;1.20;;;;;;;18.91;73.21;100020.44;4460741;32;34586;-78
2022/07/02 03:04:07;;;;;;;2.62;1.20;;;;;;;18.70;74.33;100017.44;4444163;32;33892;-78
2022/07/02 03:06:35;;;;;;;4.97;2.08;;;;;;;18.63;74.50;100030.47;4465667;32;33915;-79
2022/07/02 03:09:02;;;;;;;3.33;1.70;;;;;;;18.65;74.51;100044.47;4462412;32;33160;-78
2022/07/02 03:11:31;;;;;;;2.47;1.30;;;;;;;18.90;73.80;100049.28;4448268;32;33980;-78
2022/07/02 03:13:59;;;;;;;2.70;1.75;;;;;;;18.78;74.09;100053.44;4445069;32;33961;-80
2022/07/02 03:16:26;;;;;;;6.03;1.55;;;;;;;18.94;73.43;100054.59;4459246;32;34514;-81
2022/07/02 03:18:54;;;;;;;2.08;1.33;;;;;;;18.75;74.50;100065.62;4444571;32;33405;-79
2022/07/02 03:21:21;;;;;;;2.58;1.37;;;;;;;18.92;73.60;100060.69;4445258;32;33296;-78
2022/07/02 03:23:49;;;;;;;3.03;1.70;;;;;;;18.97;73.36;100052.00;4441296;32;33571;-81
2022/07/02 03:26:17;;;;;;;3.33;1.50;;;;;;;18.92;73.74;100066.81;4459211;32;33489;-80
2022/07/02 03:28:44;;;;;;;3.25;1.52;;;;;;;19.02;73.31;100063.44;4445757;32;34231;-79
2022/07/02 03:31:12;;;;;;;3.08;1.73;;;;;;;18.91;73.68;100059.81;4461932;32;33967;-80
2022/07/02 03:33:40;;;;;;;2.20;1.50;;;;;;;19.00;73.67;100067.78;4461741;32;33843;-81
2022/07/02 03:36:07;;;;;;;3.67;1.65;;;;;;;18.98;73.85;100093.12;4464227;32;34634;-79
2022/07/02 03:38:35;;;;;;;5.85;1.70;;;;;;;18.89;74.16;100087.78;4460476;32;33524;-80
2022/07/02 03:41:02;;;;;;;3.15;1.60;;;;;;;19.03;73.84;100101.97;4461590;32;33940;-79
2022/07/02 03:43:30;;;;;;;4.28;1.62;;;;;;;19.15;73.14;100110.91;4466121;32;33991;-79
2022/07/02 03:45:57;;;;;;;2.83;1.40;;;;;;;19.17;73.13;100103.94;4457073;32;33424;-78
2022/07/02 03:48:25;;;;;;;3.15;1.37;;;;;;;19.22;72.77;100097.00;4458567;32;33452;-79
2022/07/02 03:50:52;;;;;;;3.92;1.75;;;;;;;19.18;72.86;100106.59;4458460;32;33887;-81
2022/07/02 03:53:20;;;;;;;5.47;2.12;;;;;;;19.33;72.05;100116.41;4460039;32;34848;-79
2022/07/02 03:55:47;;;;;;;4.68;1.90;;;;;;;19.29;72.24;100125.09;4464540;32;34573;-82
2022/07/02 03:58:15;;;;;;;7.30;2.12;;;;;;;19.34;71.85;100133.06;4456625;32;33345;-80
2022/07/02 04:00:42;;;;;;;4.28;2.10;;;;;;;19.14;72.61;100135.37;4454050;32;33989;-80
2022/07/02 04:03:10;;;;;;;4.50;1.83;;;;;;;19.11;72.69;100135.34;4452983;32;34047;-79
2022/07/02 04:05:37;;;;;;;4.37;1.90;;;;;;;19.15;72.68;100142.41;4451408;32;34478;-80
2022/07/02 04:08:06;;;;;;;3.30;2.03;;;;;;;19.22;72.32;100141.66;4452549;32;33521;-80
2022/07/02 04:10:34;;;;;;;3.75;1.67;;;;;;;19.15;72.64;100153.78;4457783;32;33743;-81
2022/07/02 04:13:01;;;;;;;4.30;1.92;;;;;;;19.27;72.20;100158.34;4459297;32;33653;-80
2022/07/02 04:15:29;;;;;;;3.60;1.60;;;;;;;19.38;71.80;100156.78;4458462;32;33987;-80
2022/07/02 04:17:57;;;;;;;3.35;1.40;;;;;;;19.37;71.93;100170.78;4466717;32;34166;-81
2022/07/02 04:20:24;;;;;;;4.60;2.10;;;;;;;19.18;72.54;100168.72;4459092;32;33961;-80
2022/07/02 04:22:52;;;;;;;4.18;1.80;;;;;;;19.18;72.92;100171.34;4466336;32;33850;-78
2022/07/02 04:25:19;;;;;;;4.62;2.10;;;;;;;19.32;72.12;100176.81;4459782;32;34436;-78
2022/07/02 04:27:47;;;;;;;3.05;1.70;;;;;;;19.30;72.24;100178.53;4462092;32;33964;-79
2022/07/02 04:30:14;;;;;;;5.22;2.10;;;;;;;19.37;72.17;100170.78;4461235;32;33385;-79
2022/07/02 04:32:42;;;;;;;7.03;3.20;;;;;;;19.47;71.52;100163.00;4441653;32;34712;-81
2022/07/02 04:35:10;;;;;;;4.18;1.90;;;;;;;19.21;72.38;100164.38;4455092;32;34876;-81
2022/07/02 04:37:37;;;;;;;4.45;1.92;;;;;;;19.32;72.01;100168.94;4458098;32;33872;-78
2022/07/02 04:40:08;;;;;;;4.45;2.47;;;;;;;19.42;71.69;100174.34;4457268;32;33866;-81
2022/07/02 04:42:36;;;;;;;4.45;2.00;;;;;;;19.44;71.46;100170.00;4448647;32;32477;-79
2022/07/02 04:45:04;;;;;;;3.72;2.20;;;;;;;19.59;71.05;100182.47;4459155;32;34510;-80
2022/07/02 04:47:32;;;;;;;4.30;2.37;;;;;;;19.54;71.08;100184.13;4446912;32;32092;-79
2022/07/02 04:49:59;;;;;;;6.18;2.40;;;;;;;19.25;72.20;100179.34;4445378;32;34571;-81
2022/07/02 04:52:27;;;;;;;4.95;2.40;;;;;;;19.40;71.67;100186.56;4466047;32;34011;-81
2022/07/02 04:54:55;;;;;;;3.85;2.53;;;;;;;19.40;71.73;100186.56;4461753;32;34119;-81
2022/07/02 04:57:22;;;;;;;3.30;1.90;;;;;;;19.49;71.70;100195.44;4461825;32;33310;-80
2022/07/02 04:59:49;;;;;;;4.00;2.10;;;;;;;19.70;70.79;100200.13;4457492;32;34026;-81
2022/07/02 05:02:18;;;;;;;5.28;2.55;;;;;;;19.83;70.45;100192.47;4459116;32;34595;-78
2022/07/02 05:04:46;;;;;;;6.80;2.30;;;;;;;19.75;70.51;100198.50;4461378;32;34300;-80
2022/07/02 05:07:14;;;;;;;4.20;2.47;;;;;;;19.80;70.47;100216.09;4465498;32;34150;-80
2022/07/02 05:09:48;;;;;;;5.30;2.72;;;;;;;19.78;70.34;100215.19;4459660;32;33838;-80
2022/07/02 05:12:16;;;;;;;4.45;2.12;;;;;;;19.76;70.59;100206.41;4448273;32;34744;-80
2022/07/02 05:14:43;;;;;;;4.87;1.90;;;;;;;19.88;70.36;100216.19;4461768;32;33941;-80
2022/07/02 05:17:11;;;;;;;5.45;2.42;;;;;;;20.07;69.35;100216.44;4458850;32;33331;-79
2022/07/02 05:19:39;;;;;;;3.83;2.35;;;;;;;20.06;69.29;100210.28;4467241;32;33435;-80
2022/07/02 05:22:06;;;;;;;4.18;2.25;;;;;;;20.14;69.15;100221.78;4462838;32;33876;-80
2022/07/02 05:24:34;;;;;;;4.45;2.60;;;;;;;20.22;68.89;100233.31;4466425;32;33944;-81
2022/07/02 05:27:02;;;;;;;5.32;2.80;;;;;;;20.53;68.05;100248.56;4463224;32;33322;-80
2022/07/02 05:29:29;;;;;;;5.62;2.55;;;;;;;20.46;67.80;100242.34;4458112;32;33810;-79
2022/07/02 05:31:57;;;;;;;5.15;2.42;;;;;;;20.53;67.59;100256.44;4467476;32;34211;-78
2022/07/02 05:34:24;;;;;;;4.32;2.37;;;;;;;20.70;67.03;100251.41;4458853;32;33916;-81
2022/07/02 05:36:52;;;;;;;3.28;1.75;;;;;;;20.72;67.14;100265.47;4456168;32;33216;-81
2022/07/02 05:39:20;;;;;;;4.05;2.47;;;;;;;20.61;66.74;100255.72;4453423;32;33895;-82
2022/07/02 05:41:48;;;;;;;4.80;2.92;;;;;;;20.74;66.67;100285.66;4442256;32;32864;-80
2022/07/02 05:44:15;;;;;;;4.12;2.42;;;;;;;20.65;66.70;100285.59;4458259;32;33574;-78
2022/07/02 05:46:43;;;;;;;6.28;2.72;;;;;;;20.66;66.76;100286.47;4456686;32;33365;-81
2022/07/02 05:49:10;;;;;;;5.05;2.70;;;;;;;20.73;66.51;100299.72;4466193;32;34610;-80
2022/07/02 05:51:38;;;;;;;4.07;2.47;;;;;;;20.79;66.39;100298.91;4459657;32;33955;-82
2022/07/02 05:54:06;;;;;;;7.18;3.08;;;;;;;21.02;66.12;100302.66;4464753;32;34018;-81
2022/07/02 05:56:33;;;;;;;4.65;2.72;;;;;;;20.95;65.99;100310.47;4465734;32;33339;-81
2022/07/02 05:59:01;;;;;;;4.47;2.80;;;;;;;20.97;65.84;100304.34;4456404;32;34049;-80
2022/07/02 06:01:28;;;;;;;5.03;2.87;;;;;;;21.02;66.24;100296.53;4442530;32;33624;-81
2022/07/02 06:03:56;;;;;;;4.03;2.47;;;;;;;21.21;65.58;100292.31;4460645;32;33379;-84
2022/07/02 06:09:10;;;;;;;5.00;2.50;;;;;;;21.19;64.99;100289.66;4450035;32;32345;-81
2022/07/02 06:11:38;;;;;;;6.20;3.25;;;;;;;21.27;64.62;100281.81;4454141;32;33642;-80
2022/07/02 06:14:05;;;;;;;4.32;2.60;;;;;;;21.17;65.15;100282.59;4459025;32;33598;-80
2022/07/02 06:16:38;;;;;;;5.25;2.95;;;;;;;21.51;64.02;100293.47;4455588;32;33345;-81
2022/07/02 06:19:07;;;;;;;4.40;2.58;;;;;;;21.29;64.73;100295.91;4462923;32;33575;-81
2022/07/02 06:21:35;;;;;;;6.87;2.80;;;;;;;21.83;63.39;100298.09;4466178;32;34644;-80
2022/07/02 06:24:03;;;;;;;5.57;3.05;;;;;;;22.11;62.79;100302.66;4460528;32;34475;-82
2022/07/02 06:26:30;;;;;;;7.70;2.90;;;;;;;21.82;62.27;100291.94;4446338;32;33097;-81
2022/07/02 06:28:57;;;;;;;3.85;2.37;;;;;;;21.61;62.82;100295.31;4461219;32;34611;-80
2022/07/02 06:31:25;;;;;;;4.50;2.50;;;;;;;21.72;62.64;100317.38;4461203;32;32694;-80
2022/07/02 06:33:53;;;;;;;6.55;2.70;;;;;;;21.68;62.68;100299.75;4429415;32;33262;-80
2022/07/02 06:36:22;;;;;;;5.62;2.58;;;;;;;21.83;62.34;100295.44;4463374;32;32965;-83
2022/07/02 06:38:51;;;;;;;4.03;2.70;;;;;;;21.75;62.75;100308.59;4463516;32;33590;-80
2022/07/02 06:44:06;;;;;;;4.60;2.72;;;;;;;21.77;62.20;100315.66;4462941;32;33650;-83
2022/07/02 06:46:34;;;;;;;4.32;2.75;;;;;;;21.78;62.30;100316.53;4467274;32;33417;-81
2022/07/02 06:49:02;;;;;;;6.00;2.58;;;;;;;21.99;61.73;100318.44;4463988;32;33854;-81
2022/07/02 06:51:30;;;;;;;6.07;3.00;;;;;;;22.24;61.26;100326.50;4466772;32;34540;-80
2022/07/02 06:54:00;;;;;;;5.10;2.30;;;;;;;22.30;61.01;100321.28;4466468;32;34473;-84
2022/07/02 06:56:28;;;;;;;5.10;2.78;;;;;;;22.39;60.89;100329.25;4456991;32;33319;-77
2022/07/02 06:58:56;;;;;;;4.60;2.47;;;;;;;22.77;60.16;100320.59;4447944;32;33925;-82
2022/07/02 07:01:24;;;;;;;7.55;2.65;;;;;;;22.91;59.11;100321.53;4461236;32;34028;-80
2022/07/02 07:03:51;;;;;;;6.45;2.83;;;;;;;22.35;60.69;100324.84;4462979;32;33779;-81
2022/07/02 07:06:26;;;;;;;4.07;2.45;;;;;;;22.01;61.60;100329.88;4463081;32;34086;-82
2022/07/02 07:08:53;;;;;;;4.22;2.60;;;;;;;22.67;59.42;100327.59;4458732;32;33898;-80
2022/07/02 07:11:22;;;;;;;7.78;2.78;;;;;;;22.74;59.93;100336.44;4457798;32;33593;-78
2022/07/02 07:13:49;;;;;;;5.35;2.80;;;;;;;22.84;58.20;100329.44;4459586;32;34494;-82
2022/07/02 07:16:17;;;;;;;5.82;2.78;;;;;;;22.78;58.87;100333.81;4459732;32;33551;-80
2022/07/02 07:21:21;;;;;;;5.62;3.33;;;;;;;22.15;60.19;100330.81;4460585;32;33490;-80
2022/07/02 07:23:49;;;;;;;6.90;2.90;;;;;;;22.69;58.77;100336.41;4460606;32;34565;-82
2022/07/02 07:26:16;;;;;;;6.03;3.30;;;;;;;22.90;58.94;100340.00;4459255;32;33217;-79
2022/07/02 07:28:44;;;;;;;6.37;3.78;;;;;;;22.14;60.33;100357.22;4462603;32;33528;-81
2022/07/02 07:31:12;;;;;;;7.50;2.92;;;;;;;22.88;58.92;100350.56;4460334;32;34126;-81
2022/07/02 07:33:40;;;;;;;5.55;2.72;;;;;;;22.67;59.44;100363.69;4458904;32;34568;-81
2022/07/02 07:36:07;;;;;;;7.00;2.92;;;;;;;23.04;57.38;100338.31;4462875;32;32797;-81
2022/07/02 07:38:35;;;;;;;4.40;2.80;;;;;;;23.52;57.04;100351.59;4459756;32;33973;-79
2022/07/02 07:41:02;;;;;;;5.68;3.28;;;;;;;23.28;57.06;100348.06;4460234;32;34521;-79
2022/07/02 07:43:30;;;;;;;3.95;2.80;;;;;;;22.82;58.50;100347.91;4448067;32;32338;-80
2022/07/02 07:45:58;;;;;;;4.53;2.70;;;;;;;23.24;57.05;100359.50;4463675;32;34134;-81
2022/07/02 07:48:26;;;;;;;4.82;2.67;;;;;;;23.36;56.41;100346.31;4457717;32;33864;-79
2022/07/02 07:50:54;;;;;;;6.28;2.67;;;;;;;23.48;56.84;100355.13;4459224;32;34064;-81
2022/07/02 07:53:22;;;;;;;8.93;2.62;;;;;;;23.82;56.28;100363.13;4462318;32;34283;-81
2022/07/02 07:55:49;;;;;;;6.50;2.83;;;;;;;23.69;55.38;100355.13;4458550;32;33539;-79
2022/07/02 07:58:17;;;;;;;9.13;2.83;;;;;;;23.72;56.75;100355.16;4465164;32;33903;-77
2022/07/02 08:00:46;;;;;;;4.53;2.85;;;;;;;23.34;56.86;100357.75;4464257;32;33487;-85
2022/07/02 08:03:14;;;;;;;7.55;3.50;;;;;;;23.87;56.25;100353.41;4464079;32;34416;-81
2022/07/02 08:05:42;;;;;;;8.32;3.08;;;;;;;23.41;57.00;100358.63;4461474;32;33007;-82
2022/07/02 08:08:09;;;;;;;4.68;2.58;;;;;;;23.82;55.53;100366.63;4465439;32;34575;-81
2022/07/02 08:10:37;;;;;;;5.45;2.87;;;;;;;24.13;53.95;100330.44;4457666;32;34682;-83
2022/07/02 08:13:04;;;;;;;5.68;2.72;;;;;;;24.13;54.21;100362.19;4460559;32;33610;-81
2022/07/02 08:15:32;;;;;;;5.05;2.67;;;;;;;24.12;54.16;100352.47;4464731;32;33523;-82
2022/07/02 08:18:01;;;;;;;5.78;3.12;;;;;;;24.12;55.14;100355.13;4448306;32;34120;-80
2022/07/02 08:20:28;;;;;;;4.82;2.92;;;;;;;24.32;53.35;100356.88;4463835;32;34584;-81
2022/07/02 08:22:56;;;;;;;5.65;2.92;;;;;;;24.34;53.66;100348.03;4461907;32;33587;-82
2022/07/02 08:25:24;;;;;;;4.22;2.75;;;;;;;24.66;52.92;100356.78;4463842;32;33458;-80
2022/07/02 08:27:51;;;;;;;5.50;2.80;;;;;;;24.86;51.69;100346.97;4462324;32;33768;-81
2022/07/02 08:30:19;;;;;;;5.47;3.10;;;;;;;24.90;51.94;100355.81;4461639;32;34524;-81
2022/07/02 08:32:46;;;;;;;5.70;3.30;;;;;;;24.90;51.60;100346.06;4460114;32;34392;-81
2022/07/02 08:35:14;;;;;;;7.75;3.10;;;;;;;24.95;51.85;100347.81;4461071;32;33308;-82
2022/07/02 08:37:41;;;;;;;4.30;2.50;;;;;;;25.15;51.03;100353.88;4458587;32;33734;-82
2022/07/02 08:40:10;;;;;;;3.45;2.10;;;;;;;25.35;50.44;100347.59;4455335;32;33971;-79
2022/07/02 08:42:41;;;;;;;6.03;2.83;;;;;;;25.20;49.97;100343.25;4454766;32;34084;-80
2022/07/02 08:45:11;;;;;;;4.43;3.00;;;;;;;25.21;51.23;100352.97;4444971;32;32699;-81
2022/07/02 08:47:39;;;;;;;4.40;3.30;;;;;;;25.55;49.77;100340.34;4462753;32;33043;-80
2022/07/02 08:50:09;;;;;;;5.95;3.17;;;;;;;25.60;49.87;100343.88;4447752;32;33956;-80
2022/07/02 08:52:38;;;;;;;6.43;2.80;;;;;;;25.98;49.14;100361.25;4449151;32;34378;-80
2022/07/02 08:55:11;;;;;;;4.65;2.90;;;;;;;25.68;48.85;100341.16;4446914;32;32041;-83
2022/07/02 08:57:39;;;;;;;8.50;3.62;;;;;;;25.99;49.35;100349.72;4461778;32;33443;-80
2022/07/02 09:00:07;;;;;;;7.82;3.40;;;;;;;25.55;49.67;100356.28;4466559;32;33835;-82
2022/07/02 09:02:36;;;;;;;5.57;3.17;;;;;;;25.79;49.96;100355.22;4460160;32;33036;-81
2022/07/02 09:05:03;;;;;;;6.53;3.17;;;;;;;26.18;49.32;100357.53;4448431;32;33170;-78
2022/07/02 09:07:31;;;;;;;7.35;3.92;;;;;;;26.37;48.33;100353.78;4446400;32;34111;-83
2022/07/02 09:09:59;;;;;;;5.45;3.42;;;;;;;26.29;49.30;100345.87;4463199;32;34106;-83
2022/07/02 09:12:27;;;;;;;6.87;3.08;;;;;;;26.72;47.53;100360.47;4464968;32;33936;-78
2022/07/02 09:14:54;;;;;;;7.10;2.87;;;;;;;26.96;46.95;100358.38;4444352;32;33434;-84
2022/07/02 09:17:22;;;;;;;6.45;3.20;;;;;;;26.74;46.57;100348.03;4463214;32;33799;-80
2022/07/02 09:19:50;;;;;;;7.00;3.35;;;;;;;26.50;47.61;100349.19;4457332;32;32719;-82
2022/07/02 09:22:17;;;;;;;7.60;3.05;;;;;;;26.58;47.54;100346.44;4462827;32;34610;-84
2022/07/02 09:24:45;;;;;;;7.15;3.35;;;;;;;26.72;46.21;100344.53;4460842;32;33202;-81
2022/07/02 09:27:14;;;;;;;4.50;3.12;;;;;;;27.28;46.56;100338.47;4460515;32;34190;-80
2022/07/02 09:29:43;;;;;;;5.97;2.90;;;;;;;27.31;45.48;100327.78;4458066;32;33713;-83
2022/07/02 09:32:12;;;;;;;8.50;2.90;;;;;;;26.97;46.28;100323.81;4459359;32;34369;-83
2022/07/02 09:34:47;;;;;;;4.90;3.20;;;;;;;26.84;47.14;100327.53;4447427;32;33456;-81
2022/07/02 09:37:19;;;;;;;4.87;3.08;;;;;;;27.26;46.41;100331.38;4459379;32;33873;-83
2022/07/02 09:39:49;;;;;;;6.22;3.22;;;;;;;27.19;46.10;100329.69;4459486;32;34686;-83
2022/07/02 09:42:25;;;;;;;6.32;3.17;;;;;;;26.60;47.82;100331.41;4458904;32;34349;-81
2022/07/02 09:44:52;;;;;;;4.35;2.72;;;;;;;26.81;46.30;100323.16;4461852;32;34259;-81
2022/07/02 09:47:30;;;;;;;4.80;3.28;;;;;;;27.03;45.49;100333.47;4464471;32;33888;-79
2022/07/02 09:50:04;;;;;;;5.05;3.35;;;;;;;26.58;46.19;100350.00;4460507;32;33711;-84
2022/07/02 09:52:32;;;;;;;5.40;3.08;;;;;;;26.83;46.36;100325.75;4455612;32;33960;-81
2022/07/02 09:55:00;;;;;;;5.53;3.17;;;;;;;27.09;45.53;100333.38;4460554;32;33315;-82
2022/07/02 09:57:28;;;;;;;4.12;2.58;;;;;;;27.30;45.28;100342.00;4457473;32;33854;-82
2022/07/02 10:00:07;;;;;;;8.52;3.15;;;;;;;27.12;44.86;100333.34;4447273;32;34604;-85
2022/07/02 10:02:37;;;;;;;6.30;2.97;;;;;;;26.51;47.57;100352.75;4447663;32;33594;-87
2022/07/02 10:05:06;;;;;;;5.43;3.67;;;;;;;27.08;45.83;100331.63;4434972;32;32383;-84
2022/07/02 10:07:33;;;;;;;5.87;2.90;;;;;;;26.84;46.99;100338.16;4450078;32;33747;-86
2022/07/02 10:10:04;;;;;;;5.80;2.80;;;;;;;27.02;46.40;100347.66;4442583;32;32222;-81
2022/07/02 10:12:31;;;;;;;4.53;3.10;;;;;;;27.04;45.00;100340.53;4444160;32;34384;-85
2022/07/02 10:15:04;;;;;;;4.47;2.42;;;;;;;27.14;45.12;100333.31;4460404;32;32264;-83
2022/07/02 10:17:34;;;;;;;4.50;3.17;;;;;;;27.44;44.05;100332.00;4446596;32;33791;-84
2022/07/02 10:20:02;;;;;;;8.30;2.90;;;;;;;27.71;43.26;100354.59;4453992;32;33813;-84
2022/07/02 10:22:30;;;;;;;5.45;3.17;;;;;;;27.83;42.91;100332.22;4459172;32;33744;-81
2022/07/02 10:24:59;;;;;;;5.00;2.95;;;;;;;27.68;43.75;100328.06;4439629;32;32884;-86
2022/07/02 10:27:28;;;;;;;6.50;2.92;;;;;;;27.79;43.67;100330.53;4445241;32;33864;-84
2022/07/02 10:29:56;;;;;;;5.25;3.08;;;;;;;27.34;44.94;100322.41;4449063;32;33572;-83
2022/07/02 10:32:36;;;;;;;8.40;5.22;;;;;;;27.93;43.12;100324.97;4460258;32;33758;-85
2022/07/02 10:35:15;;;;;;;10.57;2.97;;;;;;;27.90;43.97;100333.91;4445302;32;33141;-82
2022/07/02 10:37:44;;;;;;;7.10;3.40;;;;;;;28.22;41.88;100324.41;4438523;32;34689;-85
2022/07/02 10:40:21;;;;;;;5.80;3.10;;;;;;;28.14;42.03;100326.38;4457001;32;34415;-82
2022/07/02 10:42:51;;;;;;;3.47;2.45;;;;;;;28.50;40.93;100334.53;4454529;32;34583;-83
2022/07/02 10:45:20;;;;;;;4.97;2.65;;;;;;;29.04;40.76;100330.75;4460440;32;34109;-80
2022/07/02 10:47:59;;;;;;;4.95;2.78;;;;;;;29.14;39.75;100322.50;4457366;32;33714;-81
2022/07/02 10:50:39;;;;;;;4.20;2.58;;;;;;;28.85;40.50;100320.50;4458924;32;33975;-81
2022/07/02 10:53:08;;;;;;;6.30;2.50;;;;;;;28.71;40.30;100323.47;4460217;32;33722;-82
2022/07/02 10:55:37;;;;;;;6.47;2.80;;;;;;;28.34;40.31;100321.53;4446542;32;33125;-84
2022/07/02 10:58:06;;;;;;;6.82;3.20;;;;;;;28.61;40.03;100316.59;4449888;32;34508;-87
2022/07/02 11:00:40;;;;;;;5.43;2.50;;;;;;;28.79;40.00;100324.16;4429998;32;32282;-83
2022/07/02 11:03:15;;;;;;;6.05;2.92;;;;;;;28.63;40.33;100314.75;4460287;32;33865;-84
2022/07/02 11:05:52;;;;;;;6.68;2.80;;;;;;;28.53;40.81;100315.84;4430496;32;32609;-83
2022/07/02 11:08:44;;;;;;;3.95;2.50;;;;;;;28.54;40.87;100307.81;4448509;32;32093;-86
2022/07/02 11:11:17;;;;;;;3.70;2.35;;;;;;;28.49;40.28;100316.78;4458166;32;33787;-84
2022/07/02 11:13:50;;;;;;;6.07;2.60;;;;;;;28.51;41.37;100309.62;4457825;32;33697;-85
2022/07/02 11:16:38;;;;;;;10.95;3.05;;;;;;;28.78;39.91;100311.75;4458166;32;33730;-82
2022/07/02 11:19:12;;;;;;;6.45;3.03;;;;;;;27.84;41.41;100310.03;4462585;32;32560;-85
2022/07/02 11:21:40;;;;;;;5.65;2.92;;;;;;;28.78;40.29;100301.09;4455221;32;33667;-82
2022/07/02 11:24:10;;;;;;;5.45;2.55;;;;;;;29.03;39.32;100308.50;4461357;32;33801;-87
2022/07/02 11:26:41;;;;;;;7.53;3.10;;;;;;;28.99;39.35;100297.06;4457844;32;33347;-81
2022/07/02 11:29:09;;;;;;;5.35;2.65;;;;;;;29.16;39.52;100310.00;4446336;32;34350;-83
2022/07/02 11:31:40;;;;;;;7.07;2.47;;;;;;;29.12;38.74;100300.34;4430922;32;33913;-83
2022/07/02 11:34:08;;;;;;;4.70;2.90;;;;;;;29.61;38.07;100303.56;4442550;32;33871;-84
2022/07/02 11:36:37;;;;;;;5.00;2.85;;;;;;;29.47;38.44;100311.94;4457723;32;34120;-83
2022/07/02 11:39:10;;;;;;;4.28;2.60;;;;;;;29.39;38.21;100312.13;4445757;32;33311;-79
2022/07/02 11:41:39;;;;;;;5.30;2.40;;;;;;;28.98;38.98;100294.44;4450200;32;33531;-87
2022/07/02 11:44:30;;;;;;;4.60;2.70;;;;;;;29.32;38.84;100299.88;4441801;32;33868;-85